Time;durP1;ratioP1;P1;durP2;ratioP2;P2;SDS_P1;SDS_P2;PMS_P1;PMS_P2;Temp;Humidity;BMP_temperature;BMP_pressure;BME280_temperature;BME280_humidity;BME280_pressure;Samples;Min_cycle;Max_cycle;Signal;HPM_P1;HPM_P2
2023/07/02 00:00:15;;;;;;;20.95;11.45;;;;;;;;;;4834244;29;20054;-74
2023/07/02 00:02:48;;;;;;;23.60;13.65;;;;;;;;;;4833667;29;20637;-73
2023/07/02 00:05:19;;;;;;;21.85;13.07;;;;;;;;;;4833830;29;20061;-73
2023/07/02 00:07:49;;;;;;;22.35;13.38;;;;;;;;;;4834770;29;20431;-72
2023/07/02 00:10:20;;;;;;;21.92;12.15;;;;;;;;;;4833842;29;20054;-73
2023/07/02 00:12:52;;;;;;;20.30;12.35;;;;;;;;;;4803634;29;20121;-74
2023/07/02 00:15:22;;;;;;;21.58;12.15;;;;;;;;;;4833437;29;20046;-74
2023/07/02 00:17:52;;;;;;;26.63;13.77;;;;;;;;;;4817695;29;20058;-74
2023/07/02 00:20:23;;;;;;;16.13;9.88;;;;;;;;;;4818219;29;20058;-74
2023/07/02 00:22:54;;;;;;;18.63;11.20;;;;;;;;;;4817673;29;20062;-73
2023/07/02 00:25:25;;;;;;;18.35;12.52;;;;;;;;;;4833745;29;20514;-74
2023/07/02 00:27:55;;;;;;;19.83;12.15;;;;;;;;;;4832746;29;20494;-74
2023/07/02 00:30:29;;;;;;;20.15;12.32;;;;;;;;;;4830016;29;20050;-74
2023/07/02 00:33:00;;;;;;;20.95;12.90;;;;;;;;;;4817199;29;20049;-74
2023/07/02 00:35:31;;;;;;;28.20;14.55;;;;;;;;;;4829766;29;20592;-74
2023/07/02 00:38:00;;;;;;;26.77;13.50;;;;;;;;;;4815809;29;20062;-75
2023/07/02 00:40:31;;;;;;;27.50;14.40;;;;;;;;;;4817266;29;20061;-75
2023/07/02 00:43:03;;;;;;;21.48;12.57;;;;;;;;;;4832991;29;20053;-75
2023/07/02 00:45:34;;;;;;;25.70;12.80;;;;;;;;;;4831207;29;20060;-74
2023/07/02 00:48:05;;;;;;;22.65;13.98;;;;;;;;;;4812813;29;20046;-73
2023/07/02 00:50:38;;;;;;;18.77;12.05;;;;;;;;;;4832106;29;20049;-73
2023/07/02 00:53:09;;;;;;;26.00;13.35;;;;;;;;;;4832507;29;20053;-74
2023/07/02 00:55:39;;;;;;;28.25;13.32;;;;;;;;;;4816205;29;20057;-74
2023/07/02 00:58:09;;;;;;;23.75;14.57;;;;;;;;;;4816390;29;20070;-73
2023/07/02 01:00:40;;;;;;;28.55;14.75;;;;;;;;;;4832001;29;20045;-72
2023/07/02 01:03:12;;;;;;;26.52;14.63;;;;;;;;;;4815962;29;20057;-72
2023/07/02 01:05:42;;;;;;;21.17;13.63;;;;;;;;;;4832728;29;20076;-75
2023/07/02 01:08:12;;;;;;;22.80;13.90;;;;;;;;;;4816171;29;20566;-74
2023/07/02 01:10:46;;;;;;;22.88;12.95;;;;;;;;;;4833135;29;20042;-74
2023/07/02 01:13:21;;;;;;;21.98;12.98;;;;;;;;;;4832867;29;20054;-74
2023/07/02 01:15:52;;;;;;;20.77;11.52;;;;;;;;;;4832179;29;20058;-74
2023/07/02 01:18:23;;;;;;;25.23;13.50;;;;;;;;;;4833269;29;20058;-74
2023/07/02 01:20:54;;;;;;;21.48;13.73;;;;;;;;;;4833553;29;20438;-74
2023/07/02 01:23:27;;;;;;;35.28;14.95;;;;;;;;;;4834113;29;20054;-74
2023/07/02 01:25:59;;;;;;;37.00;17.02;;;;;;;;;;4833937;29;20054;-74
2023/07/02 01:28:38;;;;;;;22.98;15.23;;;;;;;;;;4837607;29;20054;-74
2023/07/02 01:31:09;;;;;;;34.50;17.42;;;;;;;;;;4816937;29;20449;-74
2023/07/02 01:33:40;;;;;;;24.73;14.30;;;;;;;;;;4833750;29;20057;-74
2023/07/02 01:36:12;;;;;;;27.67;14.95;;;;;;;;;;4829830;29;20388;-75
2023/07/02 01:38:42;;;;;;;23.67;13.35;;;;;;;;;;4783325;29;20066;-73
2023/07/02 01:41:12;;;;;;;31.33;16.02;;;;;;;;;;4799517;29;20051;-73
2023/07/02 01:43:43;;;;;;;28.33;15.20;;;;;;;;;;4800530;29;20064;-73
2023/07/02 01:46:15;;;;;;;26.65;14.70;;;;;;;;;;4801177;29;20047;-73
2023/07/02 01:48:47;;;;;;;29.25;14.85;;;;;;;;;;4799084;29;20629;-75
2023/07/02 01:51:18;;;;;;;24.67;14.95;;;;;;;;;;4783286;29;20055;-73
2023/07/02 01:53:48;;;;;;;21.30;13.68;;;;;;;;;;4784244;29;20055;-74
2023/07/02 01:56:19;;;;;;;22.80;14.02;;;;;;;;;;4783193;29;20070;-73
2023/07/02 01:58:52;;;;;;;25.38;13.98;;;;;;;;;;4783531;29;20073;-73
2023/07/02 02:01:22;;;;;;;25.50;13.65;;;;;;;;;;4783789;29;20058;-73
2023/07/02 02:03:53;;;;;;;23.83;13.80;;;;;;;;;;4800423;29;20055;-73
2023/07/02 02:06:22;;;;;;;27.00;15.77;;;;;;;;;;4783368;29;20055;-75
2023/07/02 02:08:53;;;;;;;28.95;16.40;;;;;;;;;;4800092;29;20442;-73
2023/07/02 02:11:25;;;;;;;27.70;15.23;;;;;;;;;;4783566;29;20059;-73
2023/07/02 02:13:55;;;;;;;24.95;14.07;;;;;;;;;;4799554;29;20055;-73
2023/07/02 02:16:25;;;;;;;27.70;16.67;;;;;;;;;;4783282;29;20055;-73
2023/07/02 02:18:56;;;;;;;24.83;14.95;;;;;;;;;;4800115;29;20047;-73
2023/07/02 02:21:27;;;;;;;28.05;15.32;;;;;;;;;;4799723;29;20038;-73
2023/07/02 02:23:58;;;;;;;32.40;17.10;;;;;;;;;;4799573;29;20415;-73
2023/07/02 02:26:28;;;;;;;30.10;17.25;;;;;;;;;;4782899;29;20050;-73
2023/07/02 02:29:00;;;;;;;37.90;17.95;;;;;;;;;;4799359;29;20050;-73
2023/07/02 02:31:30;;;;;;;36.25;18.40;;;;;;;;;;4799581;29;20054;-73
2023/07/02 02:34:04;;;;;;;40.47;19.42;;;;;;;;;;4783069;29;20059;-73
2023/07/02 02:36:35;;;;;;;38.28;19.15;;;;;;;;;;4782878;29;20530;-73
2023/07/02 02:39:06;;;;;;;35.75;17.75;;;;;;;;;;4797770;29;20058;-73
2023/07/02 02:41:37;;;;;;;40.13;19.77;;;;;;;;;;4798036;29;20618;-72
2023/07/02 02:44:08;;;;;;;42.00;19.90;;;;;;;;;;4782715;29;20070;-74
2023/07/02 02:46:38;;;;;;;35.72;21.00;;;;;;;;;;4783125;29;20408;-73
2023/07/02 02:49:09;;;;;;;51.30;21.35;;;;;;;;;;4798949;29;20039;-73
2023/07/02 02:51:40;;;;;;;40.55;19.90;;;;;;;;;;4782715;29;20058;-73
2023/07/02 02:54:10;;;;;;;36.47;20.05;;;;;;;;;;4799127;29;20086;-74
2023/07/02 02:56:43;;;;;;;36.33;20.63;;;;;;;;;;4782773;29;20432;-74
2023/07/02 02:59:13;;;;;;;36.92;18.55;;;;;;;;;;4782397;29;20066;-73
2023/07/02 03:01:43;;;;;;;32.17;18.48;;;;;;;;;;4782658;29;20069;-73
2023/07/02 03:04:14;;;;;;;34.13;18.85;;;;;;;;;;4782562;29;20085;-73
2023/07/02 03:06:45;;;;;;;38.00;18.40;;;;;;;;;;4799182;29;20058;-74
2023/07/02 03:09:18;;;;;;;33.17;18.65;;;;;;;;;;4783310;29;20423;-74
2023/07/02 03:11:48;;;;;;;29.27;18.15;;;;;;;;;;4799119;29;20499;-73
2023/07/02 03:14:18;;;;;;;32.72;19.65;;;;;;;;;;4781570;29;20412;-73
2023/07/02 03:16:48;;;;;;;27.67;16.88;;;;;;;;;;4798711;29;20421;-73
2023/07/02 03:19:19;;;;;;;29.05;16.58;;;;;;;;;;4783180;29;20054;-73
2023/07/02 03:21:50;;;;;;;29.75;17.52;;;;;;;;;;4798806;29;20061;-74
2023/07/02 03:24:21;;;;;;;28.95;17.38;;;;;;;;;;4798811;29;20507;-73
2023/07/02 03:26:51;;;;;;;42.22;17.05;;;;;;;;;;4798280;29;20087;-74
2023/07/02 03:29:22;;;;;;;28.55;17.13;;;;;;;;;;4798539;29;20057;-75
2023/07/02 03:31:52;;;;;;;28.67;16.00;;;;;;;;;;4797730;29;20058;-73
2023/07/02 03:34:23;;;;;;;32.88;18.90;;;;;;;;;;4798241;29;20878;-73
2023/07/02 03:36:54;;;;;;;28.02;18.63;;;;;;;;;;4782053;29;20409;-73
2023/07/02 03:39:25;;;;;;;29.30;16.90;;;;;;;;;;4782774;29;20051;-74
2023/07/02 03:41:56;;;;;;;25.70;16.15;;;;;;;;;;4798810;29;20058;-73
2023/07/02 03:44:27;;;;;;;34.42;16.98;;;;;;;;;;4798207;29;20065;-74
2023/07/02 03:46:56;;;;;;;;;;;;;;;;;;4798943;29;20043;-74
2023/07/02 03:49:26;;;;;;;31.83;16.27;;;;;;;;;;4797537;29;20608;-73
2023/07/02 03:51:56;;;;;;;;;;;;;;;;;;4798911;29;20054;-74
2023/07/02 03:54:27;;;;;;;34.20;17.38;;;;;;;;;;4797433;29;19929;-74
2023/07/02 03:56:57;;;;;;;35.25;16.73;;;;;;;;;;4798278;29;20047;-73
2023/07/02 03:59:27;;;;;;;39.10;18.02;;;;;;;;;;4798173;29;20051;-76
2023/07/02 04:01:57;;;;;;;46.38;18.33;;;;;;;;;;4797837;29;20061;-74
2023/07/02 04:04:28;;;;;;;35.60;18.38;;;;;;;;;;4797667;29;20047;-73
2023/07/02 04:06:59;;;;;;;33.65;18.42;;;;;;;;;;4781391;29;20069;-74
2023/07/02 04:09:32;;;;;;;43.85;20.05;;;;;;;;;;4780954;29;20057;-73
2023/07/02 04:12:02;;;;;;;37.80;20.08;;;;;;;;;;4797886;29;20051;-72
2023/07/02 04:14:34;;;;;;;33.88;18.23;;;;;;;;;;4797897;29;20069;-73
2023/07/02 04:17:05;;;;;;;32.30;16.40;;;;;;;;;;4797849;29;20544;-73
2023/07/02 04:19:36;;;;;;;28.10;16.65;;;;;;;;;;4797739;29;20055;-73
2023/07/02 04:22:06;;;;;;;27.55;15.77;;;;;;;;;;4797665;29;20058;-73
2023/07/02 04:24:38;;;;;;;29.63;16.25;;;;;;;;;;4781925;29;20066;-73
2023/07/02 04:27:10;;;;;;;29.95;16.98;;;;;;;;;;4798064;29;20059;-73
2023/07/02 04:30:01;;;;;;;31.05;17.02;;;;;;;;;;4797629;29;20050;-75
2023/07/02 04:32:30;;;;;;;27.75;15.88;;;;;;;;;;4797756;29;20051;-73
2023/07/02 04:35:02;;;;;;;29.33;17.52;;;;;;;;;;4798249;29;20392;-73
2023/07/02 04:37:33;;;;;;;31.77;16.63;;;;;;;;;;4797731;29;20055;-73
2023/07/02 04:40:11;;;;;;;30.15;16.38;;;;;;;;;;4797288;29;20067;-72
2023/07/02 04:42:57;;;;;;;29.05;15.75;;;;;;;;;;4797233;29;20059;-73
2023/07/02 04:45:35;;;;;;;24.75;16.52;;;;;;;;;;4797379;29;20427;-73
2023/07/02 04:48:07;;;;;;;27.42;15.40;;;;;;;;;;4797349;29;20051;-73
2023/07/02 04:50:38;;;;;;;28.83;15.25;;;;;;;;;;4798300;29;20054;-74
2023/07/02 04:53:07;;;;;;;27.27;18.02;;;;;;;;;;4797444;29;20668;-73
2023/07/02 04:55:38;;;;;;;30.13;15.95;;;;;;;;;;4797208;29;20059;-73
2023/07/02 04:58:07;;;;;;;39.97;17.85;;;;;;;;;;4797230;29;20055;-73
2023/07/02 05:00:40;;;;;;;36.72;17.50;;;;;;;;;;4797166;29;20050;-73
2023/07/02 05:03:10;;;;;;;35.03;18.73;;;;;;;;;;4801021;29;20054;-73
2023/07/02 05:05:40;;;;;;;37.35;17.27;;;;;;;;;;4800972;29;20059;-73
2023/07/02 05:08:11;;;;;;;35.88;17.13;;;;;;;;;;4784548;29;20087;-73
2023/07/02 05:10:42;;;;;;;34.90;17.38;;;;;;;;;;4800433;29;20047;-73
2023/07/02 05:13:12;;;;;;;30.60;15.40;;;;;;;;;;4784489;29;20055;-73
2023/07/02 05:15:42;;;;;;;28.08;15.35;;;;;;;;;;4800798;29;20552;-72
2023/07/02 05:18:13;;;;;;;24.95;14.18;;;;;;;;;;4799088;29;20058;-73
2023/07/02 05:20:44;;;;;;;31.30;14.98;;;;;;;;;;4800529;29;20063;-73
2023/07/02 05:23:14;;;;;;;28.40;16.55;;;;;;;;;;4800838;29;20387;-73
2023/07/02 05:25:45;;;;;;;36.13;16.90;;;;;;;;;;4799871;29;20047;-73
2023/07/02 05:28:16;;;;;;;31.45;18.02;;;;;;;;;;4800698;29;20562;-73
2023/07/02 05:30:48;;;;;;;31.85;16.27;;;;;;;;;;4800605;29;20061;-73
2023/07/02 05:33:21;;;;;;;26.10;15.80;;;;;;;;;;4800513;29;20560;-73
2023/07/02 05:35:52;;;;;;;24.98;14.95;;;;;;;;;;4800132;29;20423;-73
2023/07/02 05:38:22;;;;;;;27.35;15.27;;;;;;;;;;4800320;29;20055;-73
2023/07/02 05:40:52;;;;;;;26.25;15.40;;;;;;;;;;4800433;29;20059;-73
2023/07/02 05:43:23;;;;;;;31.85;16.20;;;;;;;;;;4800217;29;20054;-73
2023/07/02 05:45:53;;;;;;;27.95;16.48;;;;;;;;;;4800068;29;20396;-74
2023/07/02 05:48:23;;;;;;;26.98;15.80;;;;;;;;;;4799897;29;20530;-73
2023/07/02 05:50:54;;;;;;;28.52;16.25;;;;;;;;;;4800271;29;20057;-72
2023/07/02 05:53:24;;;;;;;23.85;14.43;;;;;;;;;;4784158;29;20059;-73
2023/07/02 05:55:56;;;;;;;26.65;15.40;;;;;;;;;;4799520;29;20065;-73
2023/07/02 05:58:26;;;;;;;23.38;13.85;;;;;;;;;;4800205;29;20069;-73
2023/07/02 06:01:15;;;;;;;26.58;16.33;;;;;;;;;;4800108;29;20400;-73
2023/07/02 06:03:45;;;;;;;26.98;15.30;;;;;;;;;;4783286;29;20519;-73
2023/07/02 06:06:16;;;;;;;33.92;16.23;;;;;;;;;;4800051;29;20062;-73
2023/07/02 06:08:47;;;;;;;27.48;16.90;;;;;;;;;;4799899;29;20074;-73
2023/07/02 06:11:17;;;;;;;27.48;16.15;;;;;;;;;;4799729;29;20050;-73
2023/07/02 06:13:47;;;;;;;24.25;14.32;;;;;;;;;;4799428;29;20058;-73
2023/07/02 06:16:18;;;;;;;30.60;17.73;;;;;;;;;;4799772;29;20407;-73
2023/07/02 06:18:49;;;;;;;26.20;16.95;;;;;;;;;;4783860;29;20606;-73
2023/07/02 06:21:19;;;;;;;27.83;16.92;;;;;;;;;;4799815;29;20066;-73
2023/07/02 06:23:50;;;;;;;30.02;18.58;;;;;;;;;;4799443;29;20074;-73
2023/07/02 06:26:22;;;;;;;30.85;17.65;;;;;;;;;;4799707;29;20055;-73
2023/07/02 06:28:52;;;;;;;31.17;17.30;;;;;;;;;;4799749;29;20047;-73
2023/07/02 06:31:22;;;;;;;25.90;15.30;;;;;;;;;;4799606;29;20055;-73
2023/07/02 06:33:53;;;;;;;28.70;16.33;;;;;;;;;;4799578;29;20051;-74
2023/07/02 06:36:24;;;;;;;26.85;16.10;;;;;;;;;;4799731;29;20503;-73
2023/07/02 06:38:55;;;;;;;30.80;17.48;;;;;;;;;;4799803;29;20051;-73
2023/07/02 06:41:25;;;;;;;30.77;16.50;;;;;;;;;;4798948;29;20063;-73
2023/07/02 06:43:55;;;;;;;29.92;17.60;;;;;;;;;;4783535;29;20053;-73
2023/07/02 06:46:25;;;;;;;29.83;17.10;;;;;;;;;;4799071;29;20046;-73
2023/07/02 06:48:57;;;;;;;26.73;16.00;;;;;;;;;;4799137;29;20066;-73
2023/07/02 06:51:29;;;;;;;28.15;16.20;;;;;;;;;;4799027;29;20054;-73
2023/07/02 06:53:59;;;;;;;24.88;15.38;;;;;;;;;;4798982;29;20047;-73
2023/07/02 06:56:29;;;;;;;26.00;15.07;;;;;;;;;;4799014;29;20058;-73
2023/07/02 06:58:59;;;;;;;27.30;16.10;;;;;;;;;;4798961;29;20062;-73
2023/07/02 07:01:30;;;;;;;30.80;17.20;;;;;;;;;;4798929;29;20419;-72
2023/07/02 07:04:01;;;;;;;26.77;15.98;;;;;;;;;;4799655;29;20058;-73
2023/07/02 07:06:32;;;;;;;25.77;15.85;;;;;;;;;;4798965;29;20546;-73
2023/07/02 07:09:02;;;;;;;24.05;15.35;;;;;;;;;;4798124;29;20602;-73
2023/07/02 07:11:33;;;;;;;24.27;13.90;;;;;;;;;;4798714;29;20051;-73
2023/07/02 07:14:05;;;;;;;23.02;13.55;;;;;;;;;;4798498;29;20058;-73
2023/07/02 07:16:35;;;;;;;27.50;15.70;;;;;;;;;;4767918;29;20050;-73
2023/07/02 07:19:05;;;;;;;27.08;15.82;;;;;;;;;;4798676;29;20416;-73
2023/07/02 07:21:36;;;;;;;24.63;15.30;;;;;;;;;;4798686;29;20062;-73
2023/07/02 07:24:07;;;;;;;24.33;15.95;;;;;;;;;;4798342;29;20059;-74
2023/07/02 07:26:38;;;;;;;26.83;15.55;;;;;;;;;;4798454;29;20075;-72
2023/07/02 07:29:08;;;;;;;25.42;15.30;;;;;;;;;;4798933;29;20058;-73
2023/07/02 07:31:38;;;;;;;26.20;14.80;;;;;;;;;;4798576;29;20059;-72
2023/07/02 07:34:10;;;;;;;23.30;14.48;;;;;;;;;;4798501;29;20051;-73
2023/07/02 07:36:41;;;;;;;24.98;14.52;;;;;;;;;;4798746;29;20047;-72
2023/07/02 07:39:10;;;;;;;25.42;14.18;;;;;;;;;;4798408;29;20062;-73
2023/07/02 07:41:41;;;;;;;24.67;15.85;;;;;;;;;;4798632;29;20446;-74
2023/07/02 07:44:11;;;;;;;22.27;14.25;;;;;;;;;;4798084;29;20062;-72
2023/07/02 07:46:42;;;;;;;23.70;13.43;;;;;;;;;;4798099;29;20054;-73
2023/07/02 07:49:13;;;;;;;24.58;15.27;;;;;;;;;;4781776;29;20545;-71
2023/07/02 07:51:44;;;;;;;28.98;16.25;;;;;;;;;;4798791;29;20675;-74
2023/07/02 07:54:14;;;;;;;26.83;15.05;;;;;;;;;;4798304;29;20047;-74
2023/07/02 07:56:46;;;;;;;22.95;14.38;;;;;;;;;;4798296;29;20075;-74
2023/07/02 07:59:17;;;;;;;28.60;15.57;;;;;;;;;;4797443;29;20051;-74
2023/07/02 08:01:46;;;;;;;25.38;16.90;;;;;;;;;;4798388;29;20430;-74
2023/07/02 08:04:17;;;;;;;27.27;15.50;;;;;;;;;;4798132;29;20069;-74
2023/07/02 08:06:47;;;;;;;29.58;15.93;;;;;;;;;;4797685;29;20066;-74
2023/07/02 08:09:18;;;;;;;28.05;15.18;;;;;;;;;;4797937;29;20043;-75
2023/07/02 08:11:49;;;;;;;25.70;15.18;;;;;;;;;;4797966;29;20051;-74
2023/07/02 08:14:19;;;;;;;26.02;16.00;;;;;;;;;;4798408;29;20050;-75
2023/07/02 08:16:51;;;;;;;25.63;15.80;;;;;;;;;;4797856;29;20059;-74
2023/07/02 08:19:22;;;;;;;30.83;15.88;;;;;;;;;;4798753;29;20055;-74
2023/07/02 08:21:57;;;;;;;27.58;15.52;;;;;;;;;;4797699;29;20054;-74
2023/07/02 08:24:27;;;;;;;37.33;17.50;;;;;;;;;;4797614;29;20164;-73
2023/07/02 08:26:58;;;;;;;33.50;18.05;;;;;;;;;;4797652;29;20513;-73
2023/07/02 08:29:29;;;;;;;30.75;15.63;;;;;;;;;;4797736;29;20070;-73
2023/07/02 08:32:02;;;;;;;34.47;15.88;;;;;;;;;;4797881;29;20066;-73
2023/07/02 08:34:32;;;;;;;26.23;15.63;;;;;;;;;;4797762;29;20051;-73
2023/07/02 08:37:02;;;;;;;27.67;15.88;;;;;;;;;;4799618;29;20051;-74
2023/07/02 08:39:33;;;;;;;24.35;15.00;;;;;;;;;;4801040;29;20047;-73
2023/07/02 08:42:08;;;;;;;23.67;13.65;;;;;;;;;;4801387;29;20533;-73
2023/07/02 08:44:38;;;;;;;28.08;16.63;;;;;;;;;;4801558;29;20878;-73
2023/07/02 08:47:09;;;;;;;33.78;17.38;;;;;;;;;;4801099;29;20055;-74
2023/07/02 08:49:39;;;;;;;38.13;17.92;;;;;;;;;;4800814;29;20051;-75
2023/07/02 08:52:10;;;;;;;34.08;18.27;;;;;;;;;;4801760;29;20050;-73
2023/07/02 08:54:42;;;;;;;37.33;19.27;;;;;;;;;;4800878;29;20066;-73
2023/07/02 08:57:12;;;;;;;34.70;19.65;;;;;;;;;;4784939;29;20417;-74
2023/07/02 08:59:42;;;;;;;31.60;18.23;;;;;;;;;;4800775;29;20043;-73
2023/07/02 09:02:12;;;;;;;31.60;18.63;;;;;;;;;;4800841;29;21038;-73
2023/07/02 09:04:43;;;;;;;33.33;19.65;;;;;;;;;;4800810;29;20373;-73
2023/07/02 09:07:14;;;;;;;31.88;18.02;;;;;;;;;;4801548;29;20047;-73
2023/07/02 09:09:49;;;;;;;34.28;18.33;;;;;;;;;;4784942;29;20698;-73
2023/07/02 09:12:32;;;;;;;33.75;18.83;;;;;;;;;;4801019;29;20437;-73
2023/07/02 09:15:08;;;;;;;35.78;17.88;;;;;;;;;;4800399;29;20058;-73
2023/07/02 09:17:39;;;;;;;37.65;18.98;;;;;;;;;;4800912;29;20518;-74
2023/07/02 09:20:10;;;;;;;29.48;15.95;;;;;;;;;;4800489;29;20051;-73
2023/07/02 09:22:41;;;;;;;23.95;14.45;;;;;;;;;;4800757;29;20051;-73
2023/07/02 09:25:12;;;;;;;27.27;14.93;;;;;;;;;;4800061;29;20503;-73
2023/07/02 09:27:44;;;;;;;28.13;15.98;;;;;;;;;;4801139;29;20500;-73
2023/07/02 09:30:15;;;;;;;28.00;15.68;;;;;;;;;;4800515;29;20059;-74
2023/07/02 09:32:46;;;;;;;23.90;14.85;;;;;;;;;;4800377;29;20511;-73
2023/07/02 09:35:17;;;;;;;30.92;16.13;;;;;;;;;;4800268;29;20050;-73
2023/07/02 09:37:49;;;;;;;30.50;15.55;;;;;;;;;;4800118;29;20054;-73
2023/07/02 09:40:20;;;;;;;29.58;14.88;;;;;;;;;;4800469;29;20061;-74
2023/07/02 09:42:52;;;;;;;31.55;17.90;;;;;;;;;;4800824;29;20062;-73
2023/07/02 09:45:23;;;;;;;30.83;18.08;;;;;;;;;;4800124;29;20051;-73
2023/07/02 09:47:57;;;;;;;33.83;18.27;;;;;;;;;;4799921;29;20055;-73
2023/07/02 09:50:29;;;;;;;35.53;18.58;;;;;;;;;;4800112;29;20053;-73
2023/07/02 09:52:59;;;;;;;32.45;18.15;;;;;;;;;;4800372;29;20054;-73
2023/07/02 09:55:31;;;;;;;35.67;18.55;;;;;;;;;;4800331;29;20058;-74
2023/07/02 09:58:02;;;;;;;30.88;18.67;;;;;;;;;;4800375;29;20061;-74
2023/07/02 10:00:32;;;;;;;31.17;18.30;;;;;;;;;;4799663;29;20047;-74
2023/07/02 10:03:02;;;;;;;33.58;17.75;;;;;;;;;;4783490;29;20062;-73
2023/07/02 10:05:34;;;;;;;36.55;19.80;;;;;;;;;;4799910;29;20144;-73
2023/07/02 10:08:22;;;;;;;33.30;19.40;;;;;;;;;;4800078;29;20511;-73
2023/07/02 10:10:52;;;;;;;;;;;;;;;;;;4799713;29;20057;-73
2023/07/02 10:13:28;;;;;;;31.33;17.38;;;;;;;;;;4799687;29;19928;-73
2023/07/02 10:16:04;;;;;;;33.15;18.90;;;;;;;;;;4799882;29;20062;-73
2023/07/02 10:18:36;;;;;;;31.55;17.42;;;;;;;;;;4784050;29;20533;-72
2023/07/02 10:21:18;;;;;;;33.13;18.55;;;;;;;;;;4799699;29;20786;-76
2023/07/02 10:23:48;;;;;;;33.42;19.38;;;;;;;;;;4799339;29;20423;-73
2023/07/02 10:26:19;;;;;;;36.20;19.77;;;;;;;;;;4799382;29;20047;-73
2023/07/02 10:29:00;;;;;;;31.75;20.60;;;;;;;;;;4799381;29;20411;-74
2023/07/02 10:31:31;;;;;;;38.72;20.45;;;;;;;;;;4799644;29;20069;-73
2023/07/02 10:34:02;;;;;;;36.17;20.25;;;;;;;;;;4799214;29;20066;-73
2023/07/02 10:36:32;;;;;;;39.05;20.60;;;;;;;;;;4799201;29;20062;-72
2023/07/02 10:39:04;;;;;;;43.22;21.27;;;;;;;;;;4799465;29;20054;-72
2023/07/02 10:41:36;;;;;;;46.58;22.38;;;;;;;;;;4799119;29;20511;-73
2023/07/02 10:44:10;;;;;;;42.83;22.77;;;;;;;;;;4799225;29;20051;-73
2023/07/02 10:46:47;;;;;;;34.92;20.73;;;;;;;;;;4799240;29;20059;-73
2023/07/02 10:49:20;;;;;;;32.60;19.25;;;;;;;;;;4799472;29;20515;-73
2023/07/02 10:52:01;;;;;;;41.00;20.92;;;;;;;;;;4799541;29;20082;-75
2023/07/02 10:54:45;;;;;;;44.97;21.77;;;;;;;;;;4798742;29;20530;-73
2023/07/02 10:57:22;;;;;;;44.50;22.58;;;;;;;;;;4799403;29;20511;-74
2023/07/02 10:59:52;;;;;;;40.30;22.23;;;;;;;;;;4798030;29;20050;-74
2023/07/02 11:02:24;;;;;;;39.25;20.95;;;;;;;;;;4783270;29;20538;-74
2023/07/02 11:04:56;;;;;;;42.40;22.30;;;;;;;;;;4799024;29;20043;-74
2023/07/02 11:07:29;;;;;;;40.30;21.75;;;;;;;;;;4798617;29;20512;-74
2023/07/02 11:09:58;;;;;;;36.33;20.67;;;;;;;;;;4797686;29;20534;-74
2023/07/02 11:12:30;;;;;;;41.67;22.65;;;;;;;;;;4798454;29;20142;-74
2023/07/02 11:15:14;;;;;;;39.47;20.42;;;;;;;;;;4798493;29;20055;-73
2023/07/02 11:17:46;;;;;;;49.20;22.25;;;;;;;;;;4798397;29;20058;-74
2023/07/02 11:20:16;;;;;;;46.92;20.83;;;;;;;;;;4799306;29;20503;-74
2023/07/02 11:22:47;;;;;;;56.50;23.05;;;;;;;;;;4798585;29;20530;-73
2023/07/02 11:25:22;;;;;;;45.10;21.50;;;;;;;;;;4798558;29;20065;-74
2023/07/02 11:28:03;;;;;;;47.80;20.92;;;;;;;;;;4798667;29;20055;-74
2023/07/02 11:30:35;;;;;;;41.47;21.10;;;;;;;;;;4798685;29;20545;-73
2023/07/02 11:33:06;;;;;;;46.58;21.70;;;;;;;;;;4798625;29;20070;-73
2023/07/02 11:35:36;;;;;;;45.83;20.70;;;;;;;;;;4781547;29;20522;-74
2023/07/02 11:38:10;;;;;;;46.67;21.65;;;;;;;;;;4781921;29;20067;-73
2023/07/02 11:40:40;;;;;;;48.30;20.98;;;;;;;;;;4798542;29;20054;-73
2023/07/02 11:43:10;;;;;;;49.67;23.10;;;;;;;;;;4798074;29;20055;-74
2023/07/02 11:45:41;;;;;;;45.78;22.23;;;;;;;;;;4798268;29;20078;-74
2023/07/02 11:48:12;;;;;;;46.92;22.30;;;;;;;;;;4782039;29;20051;-74
2023/07/02 11:50:42;;;;;;;58.42;21.90;;;;;;;;;;4798918;29;20064;-74
2023/07/02 11:53:13;;;;;;;55.17;21.08;;;;;;;;;;4797754;29;20057;-74
2023/07/02 11:55:44;;;;;;;54.53;21.88;;;;;;;;;;4798181;29;20050;-74
2023/07/02 11:58:14;;;;;;;49.60;20.73;;;;;;;;;;4798502;29;20530;-74
2023/07/02 12:00:44;;;;;;;49.50;21.60;;;;;;;;;;4798293;29;20054;-74
2023/07/02 12:03:15;;;;;;;48.70;22.95;;;;;;;;;;4798339;29;20441;-74
2023/07/02 12:05:46;;;;;;;53.83;21.77;;;;;;;;;;4798009;29;20047;-74
2023/07/02 12:08:18;;;;;;;50.13;21.70;;;;;;;;;;4798458;29;20050;-75
2023/07/02 12:10:49;;;;;;;48.55;21.45;;;;;;;;;;4797959;29;20530;-74
2023/07/02 12:13:20;;;;;;;51.42;22.17;;;;;;;;;;4797903;29;20431;-75
2023/07/02 12:15:57;;;;;;;55.25;21.40;;;;;;;;;;4783107;29;20050;-74
2023/07/02 12:18:29;;;;;;;45.85;20.20;;;;;;;;;;4797993;29;20617;-74
2023/07/02 12:21:01;;;;;;;50.25;21.88;;;;;;;;;;4797986;29;20058;-74
2023/07/02 12:23:32;;;;;;;50.35;23.02;;;;;;;;;;4798226;29;20419;-74
2023/07/02 12:26:01;;;;;;;55.30;21.67;;;;;;;;;;4797664;29;20072;-74
2023/07/02 12:28:31;;;;;;;49.45;22.73;;;;;;;;;;4780237;29;20448;-74
2023/07/02 12:31:02;;;;;;;48.03;20.85;;;;;;;;;;4797505;29;20050;-75
2023/07/02 12:33:33;;;;;;;52.70;20.95;;;;;;;;;;4797916;29;20047;-74
2023/07/02 12:36:04;;;;;;;48.80;21.27;;;;;;;;;;4797763;29;20058;-74
2023/07/02 12:38:35;;;;;;;46.20;20.83;;;;;;;;;;4797967;29;20487;-74
2023/07/02 12:41:06;;;;;;;53.80;21.50;;;;;;;;;;4797420;29;20058;-74
2023/07/02 12:43:36;;;;;;;49.00;20.42;;;;;;;;;;4797439;29;20050;-74
2023/07/02 12:46:07;;;;;;;50.20;21.90;;;;;;;;;;4798219;29;20058;-74
2023/07/02 12:48:38;;;;;;;49.08;20.95;;;;;;;;;;4797746;29;20051;-74
2023/07/02 12:51:08;;;;;;;54.50;21.23;;;;;;;;;;4797868;29;20523;-74
2023/07/02 12:53:40;;;;;;;52.65;22.00;;;;;;;;;;4797175;29;20058;-73
2023/07/02 12:56:10;;;;;;;50.08;21.67;;;;;;;;;;4797953;29;20415;-74
2023/07/02 12:58:40;;;;;;;52.38;21.10;;;;;;;;;;4833612;29;20121;-73
2023/07/02 13:01:11;;;;;;;51.47;21.27;;;;;;;;;;4833687;29;20499;-73
2023/07/02 13:03:50;;;;;;;53.30;23.83;;;;;;;;;;4833467;29;20810;-74
2023/07/02 13:06:21;;;;;;;55.53;23.27;;;;;;;;;;4834180;29;20747;-74
2023/07/02 13:08:52;;;;;;;51.15;21.08;;;;;;;;;;4833912;29;20050;-75
2023/07/02 13:11:23;;;;;;;50.55;21.52;;;;;;;;;;4834036;29;20046;-73
2023/07/02 13:13:53;;;;;;;58.28;22.10;;;;;;;;;;4833696;29;20054;-73
2023/07/02 13:16:24;;;;;;;50.95;21.60;;;;;;;;;;4833625;29;20054;-73
2023/07/02 13:18:56;;;;;;;60.03;21.55;;;;;;;;;;4832688;29;20050;-72
2023/07/02 13:21:26;;;;;;;53.55;20.98;;;;;;;;;;4797398;29;20055;-72
2023/07/02 13:23:57;;;;;;;52.78;20.17;;;;;;;;;;4784551;29;20523;-72
2023/07/02 13:26:28;;;;;;;48.35;20.23;;;;;;;;;;4800835;29;20054;-73
2023/07/02 13:29:00;;;;;;;48.60;19.35;;;;;;;;;;4800201;29;20051;-73
2023/07/02 13:31:32;;;;;;;47.83;20.25;;;;;;;;;;4801078;29;20072;-74
2023/07/02 13:34:03;;;;;;;48.08;19.58;;;;;;;;;;4799644;29;20065;-73
2023/07/02 13:36:33;;;;;;;47.10;20.73;;;;;;;;;;4800595;29;20430;-73
2023/07/02 13:39:03;;;;;;;50.58;20.35;;;;;;;;;;4800597;29;20513;-72
2023/07/02 13:41:33;;;;;;;47.28;19.90;;;;;;;;;;4800533;29;20054;-75
2023/07/02 13:44:05;;;;;;;54.17;20.63;;;;;;;;;;4800355;29;20065;-73
2023/07/02 13:46:37;;;;;;;50.50;20.25;;;;;;;;;;4800773;29;20419;-73
2023/07/02 13:49:07;;;;;;;52.75;19.00;;;;;;;;;;4800491;29;20047;-72
2023/07/02 13:51:37;;;;;;;57.05;19.48;;;;;;;;;;4800336;29;20054;-72
2023/07/02 13:54:09;;;;;;;51.67;19.98;;;;;;;;;;4807904;29;20604;-75
2023/07/02 13:56:40;;;;;;;42.95;18.17;;;;;;;;;;4836485;29;20133;-72
2023/07/02 13:59:11;;;;;;;46.13;19.08;;;;;;;;;;4835490;29;20053;-72
2023/07/02 14:01:42;;;;;;;50.47;21.50;;;;;;;;;;4834919;29;20408;-73
2023/07/02 14:04:14;;;;;;;53.70;20.27;;;;;;;;;;4834790;29;20414;-72
2023/07/02 14:06:46;;;;;;;50.63;18.90;;;;;;;;;;4834174;29;20042;-73
2023/07/02 14:09:18;;;;;;;48.45;19.08;;;;;;;;;;4834436;29;20395;-73
2023/07/02 14:11:49;;;;;;;47.67;17.50;;;;;;;;;;4835033;29;21181;-73
2023/07/02 14:14:19;;;;;;;45.08;18.55;;;;;;;;;;4835356;29;20057;-72
2023/07/02 14:16:50;;;;;;;41.10;16.08;;;;;;;;;;4836098;29;20061;-73
2023/07/02 14:19:21;;;;;;;45.55;17.60;;;;;;;;;;4836301;29;20057;-72
2023/07/02 14:21:51;;;;;;;42.28;17.02;;;;;;;;;;4835641;29;20525;-72
2023/07/02 14:24:21;;;;;;;48.00;17.02;;;;;;;;;;4835430;29;20092;-72
2023/07/02 14:26:51;;;;;;;43.78;16.17;;;;;;;;;;4836046;29;20510;-73
2023/07/02 14:29:22;;;;;;;50.10;17.77;;;;;;;;;;4835905;29;20074;-73
2023/07/02 14:31:57;;;;;;;45.78;17.58;;;;;;;;;;4836608;29;20061;-73
2023/07/02 14:34:28;;;;;;;43.40;17.88;;;;;;;;;;4836213;29;20042;-74
2023/07/02 14:36:58;;;;;;;43.00;15.82;;;;;;;;;;4834484;29;20057;-72
2023/07/02 14:39:30;;;;;;;42.25;16.30;;;;;;;;;;4834595;29;20077;-72
2023/07/02 14:42:00;;;;;;;40.35;15.75;;;;;;;;;;4834267;29;20494;-74